sensor_id;sensor_type;location;lat;lon;timestamp;P1;durP1;ratioP1;P2;durP2;ratioP2
12585;SDS011;6358;50.760;0.282;2023-01-06T00:01:09;2.90;;;2.40;;
12585;SDS011;6358;50.760;0.282;2023-01-06T00:03:35;4.13;;;2.60;;
12585;SDS011;6358;50.760;0.282;2023-01-06T00:06:02;3.73;;;2.20;;
12585;SDS011;6358;50.760;0.282;2023-01-06T00:08:29;5.13;;;2.60;;
12585;SDS011;6358;50.760;0.282;2023-01-06T00:10:55;3.83;;;2.30;;
12585;SDS011;6358;50.760;0.282;2023-01-06T00:13:21;3.70;;;2.13;;
12585;SDS011;6358;50.760;0.282;2023-01-06T00:15:47;6.10;;;2.57;;
12585;SDS011;6358;50.760;0.282;2023-01-06T00:18:13;7.63;;;2.47;;
12585;SDS011;6358;50.760;0.282;2023-01-06T00:20:40;3.97;;;2.27;;
12585;SDS011;6358;50.760;0.282;2023-01-06T00:23:06;4.23;;;2.40;;
12585;SDS011;6358;50.760;0.282;2023-01-06T00:25:32;5.10;;;2.37;;
12585;SDS011;6358;50.760;0.282;2023-01-06T00:27:58;3.80;;;2.43;;
12585;SDS011;6358;50.760;0.282;2023-01-06T00:30:24;4.40;;;2.20;;
12585;SDS011;6358;50.760;0.282;2023-01-06T00:32:50;4.07;;;2.27;;
12585;SDS011;6358;50.760;0.282;2023-01-06T00:35:16;3.17;;;2.17;;
12585;SDS011;6358;50.760;0.282;2023-01-06T00:37:43;3.93;;;2.00;;
12585;SDS011;6358;50.760;0.282;2023-01-06T00:40:09;5.37;;;2.43;;
12585;SDS011;6358;50.760;0.282;2023-01-06T00:42:35;2.77;;;2.20;;
12585;SDS011;6358;50.760;0.282;2023-01-06T00:45:01;4.13;;;2.00;;
12585;SDS011;6358;50.760;0.282;2023-01-06T00:47:27;4.10;;;2.20;;
12585;SDS011;6358;50.760;0.282;2023-01-06T00:49:53;2.30;;;1.70;;
12585;SDS011;6358;50.760;0.282;2023-01-06T00:52:19;2.97;;;1.90;;
12585;SDS011;6358;50.760;0.282;2023-01-06T00:54:45;4.67;;;2.17;;
12585;SDS011;6358;50.760;0.282;2023-01-06T00:57:11;3.00;;;2.10;;
12585;SDS011;6358;50.760;0.282;2023-01-06T00:59:38;3.90;;;2.10;;
12585;SDS011;6358;50.760;0.282;2023-01-06T01:02:04;2.43;;;1.90;;
12585;SDS011;6358;50.760;0.282;2023-01-06T01:04:30;3.40;;;1.93;;
12585;SDS011;6358;50.760;0.282;2023-01-06T01:06:57;2.87;;;1.77;;
12585;SDS011;6358;50.760;0.282;2023-01-06T01:09:25;4.10;;;2.10;;
12585;SDS011;6358;50.760;0.282;2023-01-06T01:11:52;3.47;;;2.00;;
12585;SDS011;6358;50.760;0.282;2023-01-06T01:14:34;3.03;;;2.00;;
12585;SDS011;6358;50.760;0.282;2023-01-06T01:17:00;2.90;;;1.77;;
12585;SDS011;6358;50.760;0.282;2023-01-06T01:19:26;4.50;;;1.93;;
12585;SDS011;6358;50.760;0.282;2023-01-06T01:21:53;2.63;;;1.70;;
12585;SDS011;6358;50.760;0.282;2023-01-06T01:24:19;5.20;;;1.90;;
12585;SDS011;6358;50.760;0.282;2023-01-06T01:26:45;3.13;;;1.50;;
12585;SDS011;6358;50.760;0.282;2023-01-06T01:29:12;3.63;;;2.10;;
12585;SDS011;6358;50.760;0.282;2023-01-06T01:31:39;3.83;;;1.77;;
12585;SDS011;6358;50.760;0.282;2023-01-06T01:34:05;2.60;;;1.57;;
12585;SDS011;6358;50.760;0.282;2023-01-06T01:36:31;2.40;;;1.67;;
12585;SDS011;6358;50.760;0.282;2023-01-06T01:38:57;4.43;;;1.80;;
12585;SDS011;6358;50.760;0.282;2023-01-06T01:41:24;3.87;;;1.83;;
12585;SDS011;6358;50.760;0.282;2023-01-06T01:43:52;2.30;;;1.60;;
12585;SDS011;6358;50.760;0.282;2023-01-06T01:46:20;3.77;;;1.77;;
12585;SDS011;6358;50.760;0.282;2023-01-06T01:48:47;2.97;;;1.63;;
12585;SDS011;6358;50.760;0.282;2023-01-06T01:51:15;2.57;;;1.60;;
12585;SDS011;6358;50.760;0.282;2023-01-06T01:53:49;3.73;;;1.87;;
12585;SDS011;6358;50.760;0.282;2023-01-06T01:56:17;3.93;;;2.13;;
12585;SDS011;6358;50.760;0.282;2023-01-06T01:58:47;3.20;;;1.80;;
12585;SDS011;6358;50.760;0.282;2023-01-06T02:01:14;3.20;;;1.60;;
12585;SDS011;6358;50.760;0.282;2023-01-06T02:03:40;3.17;;;1.63;;
12585;SDS011;6358;50.760;0.282;2023-01-06T02:06:10;3.60;;;1.70;;
12585;SDS011;6358;50.760;0.282;2023-01-06T02:09:20;3.63;;;1.70;;
12585;SDS011;6358;50.760;0.282;2023-01-06T02:11:28;4.20;;;1.70;;
12585;SDS011;6358;50.760;0.282;2023-01-06T02:13:58;2.73;;;1.40;;
12585;SDS011;6358;50.760;0.282;2023-01-06T02:16:32;2.37;;;1.47;;
12585;SDS011;6358;50.760;0.282;2023-01-06T02:21:36;6.83;;;1.70;;
12585;SDS011;6358;50.760;0.282;2023-01-06T02:32:20;2.83;;;1.60;;
12585;SDS011;6358;50.760;0.282;2023-01-06T02:34:55;2.53;;;1.70;;
12585;SDS011;6358;50.760;0.282;2023-01-06T02:42:39;3.77;;;1.73;;
12585;SDS011;6358;50.760;0.282;2023-01-06T02:52:36;3.83;;;1.57;;
12585;SDS011;6358;50.760;0.282;2023-01-06T02:55:08;3.30;;;1.40;;
12585;SDS011;6358;50.760;0.282;2023-01-06T02:57:40;3.07;;;1.50;;
12585;SDS011;6358;50.760;0.282;2023-01-06T03:02:38;4.40;;;1.70;;
12585;SDS011;6358;50.760;0.282;2023-01-06T03:05:05;2.90;;;1.20;;
12585;SDS011;6358;50.760;0.282;2023-01-06T03:07:33;1.73;;;1.30;;
12585;SDS011;6358;50.760;0.282;2023-01-06T03:10:01;2.63;;;1.43;;
12585;SDS011;6358;50.760;0.282;2023-01-06T03:12:34;3.07;;;1.80;;
12585;SDS011;6358;50.760;0.282;2023-01-06T03:15:01;1.93;;;1.37;;
12585;SDS011;6358;50.760;0.282;2023-01-06T03:17:28;3.73;;;1.57;;
12585;SDS011;6358;50.760;0.282;2023-01-06T03:19:54;3.17;;;1.50;;
12585;SDS011;6358;50.760;0.282;2023-01-06T03:22:20;3.57;;;1.30;;
12585;SDS011;6358;50.760;0.282;2023-01-06T03:24:46;4.97;;;1.47;;
12585;SDS011;6358;50.760;0.282;2023-01-06T03:27:13;2.70;;;1.40;;
12585;SDS011;6358;50.760;0.282;2023-01-06T03:29:40;4.17;;;1.70;;
12585;SDS011;6358;50.760;0.282;2023-01-06T03:37:05;1.80;;;1.43;;
12585;SDS011;6358;50.760;0.282;2023-01-06T03:39:38;2.63;;;1.57;;
12585;SDS011;6358;50.760;0.282;2023-01-06T03:47:41;1.90;;;1.23;;
12585;SDS011;6358;50.760;0.282;2023-01-06T03:50:14;4.17;;;1.37;;
12585;SDS011;6358;50.760;0.282;2023-01-06T03:52:44;2.70;;;1.63;;
12585;SDS011;6358;50.760;0.282;2023-01-06T03:55:13;3.23;;;1.80;;
12585;SDS011;6358;50.760;0.282;2023-01-06T03:57:42;2.00;;;1.37;;
12585;SDS011;6358;50.760;0.282;2023-01-06T04:00:09;2.43;;;1.30;;
12585;SDS011;6358;50.760;0.282;2023-01-06T04:02:37;2.27;;;1.30;;
12585;SDS011;6358;50.760;0.282;2023-01-06T04:05:17;2.37;;;1.37;;
12585;SDS011;6358;50.760;0.282;2023-01-06T04:07:44;2.77;;;1.60;;
12585;SDS011;6358;50.760;0.282;2023-01-06T04:10:10;2.97;;;1.40;;
12585;SDS011;6358;50.760;0.282;2023-01-06T04:12:37;2.90;;;1.50;;
12585;SDS011;6358;50.760;0.282;2023-01-06T04:15:25;2.63;;;1.40;;
12585;SDS011;6358;50.760;0.282;2023-01-06T04:17:49;2.33;;;1.30;;
12585;SDS011;6358;50.760;0.282;2023-01-06T04:20:17;2.13;;;1.13;;
12585;SDS011;6358;50.760;0.282;2023-01-06T04:22:44;1.97;;;1.20;;
12585;SDS011;6358;50.760;0.282;2023-01-06T04:25:10;4.80;;;1.50;;
12585;SDS011;6358;50.760;0.282;2023-01-06T04:27:36;2.90;;;1.40;;
12585;SDS011;6358;50.760;0.282;2023-01-06T04:30:03;2.57;;;1.40;;
12585;SDS011;6358;50.760;0.282;2023-01-06T04:32:29;3.13;;;1.70;;
12585;SDS011;6358;50.760;0.282;2023-01-06T04:34:55;3.10;;;1.30;;
12585;SDS011;6358;50.760;0.282;2023-01-06T04:37:21;3.73;;;1.40;;
12585;SDS011;6358;50.760;0.282;2023-01-06T04:39:47;2.30;;;1.37;;
12585;SDS011;6358;50.760;0.282;2023-01-06T04:42:13;3.57;;;1.60;;
12585;SDS011;6358;50.760;0.282;2023-01-06T04:44:40;1.57;;;1.30;;
12585;SDS011;6358;50.760;0.282;2023-01-06T04:47:07;3.83;;;1.50;;
12585;SDS011;6358;50.760;0.282;2023-01-06T04:49:34;3.67;;;1.50;;
12585;SDS011;6358;50.760;0.282;2023-01-06T04:52:00;2.73;;;1.40;;
12585;SDS011;6358;50.760;0.282;2023-01-06T04:54:26;3.57;;;1.50;;
12585;SDS011;6358;50.760;0.282;2023-01-06T04:56:52;3.57;;;1.60;;
12585;SDS011;6358;50.760;0.282;2023-01-06T04:59:18;2.83;;;1.70;;
12585;SDS011;6358;50.760;0.282;2023-01-06T05:01:45;3.23;;;1.60;;
12585;SDS011;6358;50.760;0.282;2023-01-06T05:04:11;2.63;;;1.40;;
12585;SDS011;6358;50.760;0.282;2023-01-06T05:06:37;2.27;;;1.23;;
12585;SDS011;6358;50.760;0.282;2023-01-06T05:09:06;3.93;;;1.50;;
12585;SDS011;6358;50.760;0.282;2023-01-06T05:11:32;3.03;;;1.50;;
12585;SDS011;6358;50.760;0.282;2023-01-06T05:13:58;2.53;;;1.20;;
12585;SDS011;6358;50.760;0.282;2023-01-06T05:16:25;4.73;;;1.57;;
12585;SDS011;6358;50.760;0.282;2023-01-06T05:18:52;2.40;;;1.30;;
12585;SDS011;6358;50.760;0.282;2023-01-06T05:21:18;2.17;;;1.17;;
12585;SDS011;6358;50.760;0.282;2023-01-06T05:23:44;4.00;;;1.70;;
12585;SDS011;6358;50.760;0.282;2023-01-06T05:26:14;2.97;;;1.43;;
12585;SDS011;6358;50.760;0.282;2023-01-06T05:28:40;2.27;;;1.30;;
12585;SDS011;6358;50.760;0.282;2023-01-06T05:31:07;3.00;;;1.40;;
12585;SDS011;6358;50.760;0.282;2023-01-06T05:33:34;3.00;;;1.40;;
12585;SDS011;6358;50.760;0.282;2023-01-06T05:36:01;3.57;;;1.20;;
12585;SDS011;6358;50.760;0.282;2023-01-06T05:38:27;4.70;;;1.50;;
12585;SDS011;6358;50.760;0.282;2023-01-06T05:40:53;2.57;;;1.30;;
12585;SDS011;6358;50.760;0.282;2023-01-06T05:43:20;2.53;;;1.50;;
12585;SDS011;6358;50.760;0.282;2023-01-06T05:45:47;2.67;;;1.27;;
12585;SDS011;6358;50.760;0.282;2023-01-06T05:48:13;2.53;;;1.20;;
12585;SDS011;6358;50.760;0.282;2023-01-06T05:50:39;3.20;;;1.33;;
12585;SDS011;6358;50.760;0.282;2023-01-06T05:53:05;2.53;;;1.30;;
12585;SDS011;6358;50.760;0.282;2023-01-06T05:55:32;3.73;;;1.60;;
12585;SDS011;6358;50.760;0.282;2023-01-06T05:57:58;2.03;;;1.30;;
12585;SDS011;6358;50.760;0.282;2023-01-06T06:00:24;2.13;;;1.20;;
12585;SDS011;6358;50.760;0.282;2023-01-06T06:02:50;3.00;;;1.40;;
12585;SDS011;6358;50.760;0.282;2023-01-06T06:05:16;2.27;;;1.30;;
12585;SDS011;6358;50.760;0.282;2023-01-06T06:07:42;3.17;;;1.37;;
12585;SDS011;6358;50.760;0.282;2023-01-06T06:10:08;3.20;;;1.53;;
12585;SDS011;6358;50.760;0.282;2023-01-06T06:12:35;2.70;;;1.40;;
12585;SDS011;6358;50.760;0.282;2023-01-06T06:15:01;1.73;;;1.30;;
12585;SDS011;6358;50.760;0.282;2023-01-06T06:17:27;2.97;;;1.27;;
12585;SDS011;6358;50.760;0.282;2023-01-06T06:19:53;2.47;;;1.20;;
12585;SDS011;6358;50.760;0.282;2023-01-06T06:22:19;2.60;;;1.20;;
12585;SDS011;6358;50.760;0.282;2023-01-06T06:24:45;2.47;;;1.53;;
12585;SDS011;6358;50.760;0.282;2023-01-06T06:27:11;2.50;;;1.20;;
12585;SDS011;6358;50.760;0.282;2023-01-06T06:29:37;3.00;;;1.30;;
12585;SDS011;6358;50.760;0.282;2023-01-06T06:32:04;2.17;;;1.20;;
12585;SDS011;6358;50.760;0.282;2023-01-06T06:34:30;1.90;;;1.10;;
12585;SDS011;6358;50.760;0.282;2023-01-06T06:36:56;1.83;;;1.13;;
12585;SDS011;6358;50.760;0.282;2023-01-06T06:39:22;2.60;;;1.20;;
12585;SDS011;6358;50.760;0.282;2023-01-06T06:41:48;2.93;;;1.30;;
12585;SDS011;6358;50.760;0.282;2023-01-06T06:44:14;1.83;;;1.00;;
12585;SDS011;6358;50.760;0.282;2023-01-06T06:46:40;1.97;;;1.10;;
12585;SDS011;6358;50.760;0.282;2023-01-06T06:49:06;3.03;;;1.10;;
12585;SDS011;6358;50.760;0.282;2023-01-06T06:51:32;3.00;;;1.47;;
12585;SDS011;6358;50.760;0.282;2023-01-06T06:53:58;2.07;;;1.17;;
12585;SDS011;6358;50.760;0.282;2023-01-06T06:56:24;2.77;;;1.47;;
12585;SDS011;6358;50.760;0.282;2023-01-06T06:58:50;1.77;;;0.97;;
12585;SDS011;6358;50.760;0.282;2023-01-06T07:01:18;1.67;;;1.10;;
12585;SDS011;6358;50.760;0.282;2023-01-06T07:03:44;2.53;;;1.20;;
12585;SDS011;6358;50.760;0.282;2023-01-06T07:06:12;1.57;;;1.00;;
12585;SDS011;6358;50.760;0.282;2023-01-06T07:08:41;2.10;;;1.20;;
12585;SDS011;6358;50.760;0.282;2023-01-06T07:11:07;1.83;;;1.20;;
12585;SDS011;6358;50.760;0.282;2023-01-06T07:13:33;1.77;;;1.00;;
12585;SDS011;6358;50.760;0.282;2023-01-06T07:16:00;1.97;;;0.97;;
12585;SDS011;6358;50.760;0.282;2023-01-06T07:18:26;2.77;;;1.30;;
12585;SDS011;6358;50.760;0.282;2023-01-06T07:20:52;1.93;;;1.10;;
12585;SDS011;6358;50.760;0.282;2023-01-06T07:23:18;1.83;;;1.27;;
12585;SDS011;6358;50.760;0.282;2023-01-06T07:25:45;1.90;;;1.00;;
12585;SDS011;6358;50.760;0.282;2023-01-06T07:28:11;2.73;;;1.10;;
12585;SDS011;6358;50.760;0.282;2023-01-06T07:30:37;1.50;;;1.07;;
12585;SDS011;6358;50.760;0.282;2023-01-06T07:33:03;2.73;;;1.00;;
12585;SDS011;6358;50.760;0.282;2023-01-06T07:35:29;2.13;;;1.20;;
12585;SDS011;6358;50.760;0.282;2023-01-06T07:38:00;1.33;;;0.90;;
12585;SDS011;6358;50.760;0.282;2023-01-06T07:40:26;3.97;;;1.30;;
12585;SDS011;6358;50.760;0.282;2023-01-06T07:42:52;2.30;;;1.13;;
12585;SDS011;6358;50.760;0.282;2023-01-06T07:45:18;1.20;;;1.00;;
12585;SDS011;6358;50.760;0.282;2023-01-06T07:47:44;1.50;;;0.97;;
12585;SDS011;6358;50.760;0.282;2023-01-06T07:50:10;3.37;;;0.97;;
12585;SDS011;6358;50.760;0.282;2023-01-06T07:52:37;2.53;;;1.03;;
12585;SDS011;6358;50.760;0.282;2023-01-06T07:55:03;1.70;;;0.87;;
12585;SDS011;6358;50.760;0.282;2023-01-06T07:57:29;1.40;;;0.70;;
12585;SDS011;6358;50.760;0.282;2023-01-06T07:59:55;0.90;;;0.70;;
12585;SDS011;6358;50.760;0.282;2023-01-06T08:02:21;1.33;;;1.00;;
12585;SDS011;6358;50.760;0.282;2023-01-06T08:04:48;2.33;;;0.87;;
12585;SDS011;6358;50.760;0.282;2023-01-06T08:07:14;1.17;;;0.80;;
12585;SDS011;6358;50.760;0.282;2023-01-06T08:09:41;1.47;;;0.90;;
12585;SDS011;6358;50.760;0.282;2023-01-06T08:12:07;2.87;;;1.07;;
12585;SDS011;6358;50.760;0.282;2023-01-06T08:14:33;1.23;;;0.80;;
12585;SDS011;6358;50.760;0.282;2023-01-06T08:16:59;1.60;;;0.80;;
12585;SDS011;6358;50.760;0.282;2023-01-06T08:19:25;3.20;;;0.70;;
12585;SDS011;6358;50.760;0.282;2023-01-06T08:21:51;1.80;;;0.73;;
12585;SDS011;6358;50.760;0.282;2023-01-06T08:24:17;2.00;;;0.90;;
12585;SDS011;6358;50.760;0.282;2023-01-06T08:26:43;1.30;;;0.70;;
12585;SDS011;6358;50.760;0.282;2023-01-06T08:29:09;1.90;;;0.93;;
12585;SDS011;6358;50.760;0.282;2023-01-06T08:31:35;2.57;;;0.70;;
12585;SDS011;6358;50.760;0.282;2023-01-06T08:34:01;2.07;;;0.83;;
12585;SDS011;6358;50.760;0.282;2023-01-06T08:36:27;2.37;;;1.00;;
12585;SDS011;6358;50.760;0.282;2023-01-06T08:38:54;1.73;;;0.90;;
12585;SDS011;6358;50.760;0.282;2023-01-06T08:41:20;1.33;;;0.80;;
12585;SDS011;6358;50.760;0.282;2023-01-06T08:43:46;1.90;;;0.93;;
12585;SDS011;6358;50.760;0.282;2023-01-06T08:46:14;4.47;;;1.00;;
12585;SDS011;6358;50.760;0.282;2023-01-06T08:48:41;3.30;;;0.90;;
12585;SDS011;6358;50.760;0.282;2023-01-06T08:51:11;3.73;;;1.00;;
12585;SDS011;6358;50.760;0.282;2023-01-06T08:53:38;4.10;;;0.90;;
12585;SDS011;6358;50.760;0.282;2023-01-06T08:56:09;5.00;;;1.20;;
12585;SDS011;6358;50.760;0.282;2023-01-06T08:58:35;5.63;;;4.33;;
12585;SDS011;6358;50.760;0.282;2023-01-06T09:01:02;19.23;;;17.37;;
12585;SDS011;6358;50.760;0.282;2023-01-06T09:03:28;45.77;;;41.00;;
12585;SDS011;6358;50.760;0.282;2023-01-06T09:05:54;60.63;;;54.50;;
12585;SDS011;6358;50.760;0.282;2023-01-06T09:08:21;64.53;;;58.23;;
12585;SDS011;6358;50.760;0.282;2023-01-06T09:10:47;70.67;;;63.30;;
12585;SDS011;6358;50.760;0.282;2023-01-06T09:13:13;74.67;;;66.70;;
12585;SDS011;6358;50.760;0.282;2023-01-06T09:15:40;75.97;;;68.43;;
12585;SDS011;6358;50.760;0.282;2023-01-06T09:18:06;75.23;;;67.63;;
12585;SDS011;6358;50.760;0.282;2023-01-06T09:20:33;72.37;;;64.87;;
12585;SDS011;6358;50.760;0.282;2023-01-06T09:22:59;71.93;;;64.73;;
12585;SDS011;6358;50.760;0.282;2023-01-06T09:25:25;67.63;;;60.67;;
12585;SDS011;6358;50.760;0.282;2023-01-06T09:27:51;67.93;;;61.03;;
12585;SDS011;6358;50.760;0.282;2023-01-06T09:30:17;70.70;;;63.30;;
12585;SDS011;6358;50.760;0.282;2023-01-06T09:32:43;67.93;;;61.13;;
12585;SDS011;6358;50.760;0.282;2023-01-06T09:35:10;69.90;;;62.87;;
12585;SDS011;6358;50.760;0.282;2023-01-06T09:37:36;62.97;;;56.77;;
12585;SDS011;6358;50.760;0.282;2023-01-06T09:40:02;63.67;;;57.20;;
12585;SDS011;6358;50.760;0.282;2023-01-06T09:42:31;62.77;;;56.47;;
12585;SDS011;6358;50.760;0.282;2023-01-06T09:45:02;60.40;;;54.30;;
12585;SDS011;6358;50.760;0.282;2023-01-06T09:47:31;59.73;;;53.73;;
12585;SDS011;6358;50.760;0.282;2023-01-06T09:50:12;58.43;;;52.60;;
12585;SDS011;6358;50.760;0.282;2023-01-06T09:52:46;57.00;;;51.33;;
12585;SDS011;6358;50.760;0.282;2023-01-06T09:55:25;54.30;;;48.80;;
12585;SDS011;6358;50.760;0.282;2023-01-06T09:57:58;50.43;;;45.63;;
12585;SDS011;6358;50.760;0.282;2023-01-06T10:00:38;49.70;;;44.37;;
12585;SDS011;6358;50.760;0.282;2023-01-06T10:03:13;46.50;;;41.83;;
12585;SDS011;6358;50.760;0.282;2023-01-06T10:13:41;39.27;;;35.17;;
12585;SDS011;6358;50.760;0.282;2023-01-06T10:26:42;27.30;;;24.63;;
12585;SDS011;6358;50.760;0.282;2023-01-06T10:29:12;26.43;;;23.73;;
12585;SDS011;6358;50.760;0.282;2023-01-06T10:31:40;24.83;;;22.27;;
12585;SDS011;6358;50.760;0.282;2023-01-06T10:34:26;25.97;;;23.17;;
12585;SDS011;6358;50.760;0.282;2023-01-06T10:37:04;23.53;;;21.13;;
12585;SDS011;6358;50.760;0.282;2023-01-06T10:39:36;22.97;;;20.53;;
12585;SDS011;6358;50.760;0.282;2023-01-06T10:42:05;20.60;;;18.50;;
12585;SDS011;6358;50.760;0.282;2023-01-06T10:44:54;22.07;;;17.77;;
12585;SDS011;6358;50.760;0.282;2023-01-06T10:47:30;19.90;;;17.63;;
12585;SDS011;6358;50.760;0.282;2023-01-06T10:49:56;18.30;;;16.47;;
12585;SDS011;6358;50.760;0.282;2023-01-06T10:52:23;18.60;;;16.70;;
12585;SDS011;6358;50.760;0.282;2023-01-06T10:54:51;18.57;;;16.37;;
12585;SDS011;6358;50.760;0.282;2023-01-06T10:57:22;18.47;;;16.40;;
12585;SDS011;6358;50.760;0.282;2023-01-06T11:02:40;17.40;;;15.50;;
12585;SDS011;6358;50.760;0.282;2023-01-06T11:05:10;16.67;;;14.50;;
12585;SDS011;6358;50.760;0.282;2023-01-06T11:07:43;14.63;;;13.23;;
12585;SDS011;6358;50.760;0.282;2023-01-06T11:10:12;15.10;;;13.60;;
12585;SDS011;6358;50.760;0.282;2023-01-06T11:12:43;14.43;;;12.90;;
12585;SDS011;6358;50.760;0.282;2023-01-06T11:15:14;14.53;;;13.00;;
12585;SDS011;6358;50.760;0.282;2023-01-06T11:17:44;12.93;;;11.63;;
12585;SDS011;6358;50.760;0.282;2023-01-06T11:20:26;12.80;;;11.50;;
12585;SDS011;6358;50.760;0.282;2023-01-06T11:22:53;25.23;;;21.30;;
12585;SDS011;6358;50.760;0.282;2023-01-06T11:27:46;21.00;;;18.77;;
12585;SDS011;6358;50.760;0.282;2023-01-06T11:30:19;19.50;;;17.53;;
12585;SDS011;6358;50.760;0.282;2023-01-06T11:32:46;21.43;;;16.80;;
12585;SDS011;6358;50.760;0.282;2023-01-06T11:35:15;20.43;;;15.80;;
12585;SDS011;6358;50.760;0.282;2023-01-06T11:37:44;17.63;;;14.50;;
12585;SDS011;6358;50.760;0.282;2023-01-06T11:40:15;16.50;;;14.47;;
12585;SDS011;6358;50.760;0.282;2023-01-06T11:42:43;15.80;;;12.83;;
12585;SDS011;6358;50.760;0.282;2023-01-06T11:45:31;16.43;;;13.30;;
12585;SDS011;6358;50.760;0.282;2023-01-06T11:47:59;15.43;;;11.97;;
12585;SDS011;6358;50.760;0.282;2023-01-06T11:50:25;21.17;;;12.83;;
12585;SDS011;6358;50.760;0.282;2023-01-06T11:52:59;15.67;;;12.03;;
12585;SDS011;6358;50.760;0.282;2023-01-06T11:55:25;14.47;;;11.50;;
12585;SDS011;6358;50.760;0.282;2023-01-06T11:58:07;14.20;;;10.90;;
12585;SDS011;6358;50.760;0.282;2023-01-06T12:08:19;11.43;;;10.07;;
12585;SDS011;6358;50.760;0.282;2023-01-06T12:10:47;12.73;;;9.67;;
12585;SDS011;6358;50.760;0.282;2023-01-06T12:13:15;16.30;;;9.23;;
12585;SDS011;6358;50.760;0.282;2023-01-06T12:15:41;12.43;;;9.93;;
12585;SDS011;6358;50.760;0.282;2023-01-06T12:18:13;12.57;;;9.33;;
12585;SDS011;6358;50.760;0.282;2023-01-06T12:20:42;11.73;;;8.37;;
12585;SDS011;6358;50.760;0.282;2023-01-06T12:25:55;11.07;;;8.27;;
12585;SDS011;6358;50.760;0.282;2023-01-06T12:36:08;9.50;;;7.57;;
12585;SDS011;6358;50.760;0.282;2023-01-06T12:38:41;8.53;;;7.00;;
12585;SDS011;6358;50.760;0.282;2023-01-06T12:41:10;9.30;;;7.33;;
12585;SDS011;6358;50.760;0.282;2023-01-06T12:43:37;9.50;;;7.20;;
12585;SDS011;6358;50.760;0.282;2023-01-06T12:46:10;7.60;;;6.80;;
12585;SDS011;6358;50.760;0.282;2023-01-06T12:48:45;9.13;;;6.83;;
12585;SDS011;6358;50.760;0.282;2023-01-06T12:51:26;7.83;;;6.60;;
12585;SDS011;6358;50.760;0.282;2023-01-06T12:53:58;7.50;;;6.30;;
12585;SDS011;6358;50.760;0.282;2023-01-06T13:02:30;8.67;;;6.57;;
12585;SDS011;6358;50.760;0.282;2023-01-06T13:10:55;8.37;;;5.77;;
12585;SDS011;6358;50.760;0.282;2023-01-06T13:13:30;7.43;;;5.53;;
12585;SDS011;6358;50.760;0.282;2023-01-06T13:16:02;8.30;;;5.57;;
12585;SDS011;6358;50.760;0.282;2023-01-06T13:28:56;6.87;;;4.73;;
12585;SDS011;6358;50.760;0.282;2023-01-06T13:39:48;6.33;;;4.30;;
12585;SDS011;6358;50.760;0.282;2023-01-06T13:42:18;5.67;;;4.23;;
12585;SDS011;6358;50.760;0.282;2023-01-06T13:44:45;6.83;;;4.10;;
12585;SDS011;6358;50.760;0.282;2023-01-06T13:47:14;6.57;;;4.10;;
12585;SDS011;6358;50.760;0.282;2023-01-06T13:49:41;7.13;;;4.40;;
12585;SDS011;6358;50.760;0.282;2023-01-06T13:52:29;7.40;;;4.10;;
12585;SDS011;6358;50.760;0.282;2023-01-06T13:55:04;6.73;;;4.17;;
12585;SDS011;6358;50.760;0.282;2023-01-06T13:57:35;5.00;;;3.93;;
12585;SDS011;6358;50.760;0.282;2023-01-06T14:04:56;6.07;;;3.97;;
12585;SDS011;6358;50.760;0.282;2023-01-06T14:07:29;5.10;;;3.87;;
12585;SDS011;6358;50.760;0.282;2023-01-06T14:09:56;4.77;;;3.73;;
12585;SDS011;6358;50.760;0.282;2023-01-06T14:12:23;5.17;;;3.40;;
12585;SDS011;6358;50.760;0.282;2023-01-06T14:14:53;6.67;;;3.80;;
12585;SDS011;6358;50.760;0.282;2023-01-06T14:17:27;3.87;;;3.20;;
12585;SDS011;6358;50.760;0.282;2023-01-06T14:19:53;4.33;;;3.40;;
12585;SDS011;6358;50.760;0.282;2023-01-06T14:22:20;4.87;;;3.23;;
12585;SDS011;6358;50.760;0.282;2023-01-06T14:24:52;4.13;;;3.10;;
12585;SDS011;6358;50.760;0.282;2023-01-06T14:30:17;4.87;;;3.63;;
12585;SDS011;6358;50.760;0.282;2023-01-06T14:35:11;4.30;;;3.03;;
12585;SDS011;6358;50.760;0.282;2023-01-06T14:37:43;3.90;;;2.90;;
12585;SDS011;6358;50.760;0.282;2023-01-06T14:42:50;5.67;;;2.83;;
12585;SDS011;6358;50.760;0.282;2023-01-06T14:45:18;3.80;;;2.90;;
12585;SDS011;6358;50.760;0.282;2023-01-06T14:47:47;4.03;;;3.00;;
12585;SDS011;6358;50.760;0.282;2023-01-06T14:52:52;3.63;;;2.80;;
12585;SDS011;6358;50.760;0.282;2023-01-06T14:55:19;4.10;;;2.77;;
12585;SDS011;6358;50.760;0.282;2023-01-06T14:57:46;5.10;;;3.13;;
12585;SDS011;6358;50.760;0.282;2023-01-06T15:00:17;3.10;;;2.70;;
12585;SDS011;6358;50.760;0.282;2023-01-06T15:02:52;3.37;;;2.53;;
12585;SDS011;6358;50.760;0.282;2023-01-06T15:05:28;3.93;;;2.70;;
12585;SDS011;6358;50.760;0.282;2023-01-06T15:07:58;2.53;;;2.17;;
12585;SDS011;6358;50.760;0.282;2023-01-06T15:10:25;2.93;;;2.50;;
12585;SDS011;6358;50.760;0.282;2023-01-06T15:12:52;2.80;;;2.23;;
12585;SDS011;6358;50.760;0.282;2023-01-06T15:15:25;4.07;;;2.70;;
12585;SDS011;6358;50.760;0.282;2023-01-06T15:17:52;4.10;;;2.33;;
12585;SDS011;6358;50.760;0.282;2023-01-06T15:20:19;4.43;;;2.70;;
12585;SDS011;6358;50.760;0.282;2023-01-06T15:22:47;3.20;;;2.60;;
12585;SDS011;6358;50.760;0.282;2023-01-06T15:25:17;3.50;;;2.40;;
12585;SDS011;6358;50.760;0.282;2023-01-06T15:27:44;4.20;;;2.63;;
12585;SDS011;6358;50.760;0.282;2023-01-06T15:30:15;2.43;;;2.10;;
12585;SDS011;6358;50.760;0.282;2023-01-06T15:32:42;2.47;;;2.27;;
12585;SDS011;6358;50.760;0.282;2023-01-06T15:35:13;3.57;;;2.40;;
12585;SDS011;6358;50.760;0.282;2023-01-06T15:37:41;2.63;;;2.13;;
12585;SDS011;6358;50.760;0.282;2023-01-06T15:40:09;4.10;;;2.63;;
12585;SDS011;6358;50.760;0.282;2023-01-06T15:42:40;4.13;;;2.20;;
12585;SDS011;6358;50.760;0.282;2023-01-06T15:45:20;3.03;;;2.07;;
12585;SDS011;6358;50.760;0.282;2023-01-06T15:47:46;2.07;;;1.87;;
12585;SDS011;6358;50.760;0.282;2023-01-06T15:50:17;2.97;;;2.20;;
12585;SDS011;6358;50.760;0.282;2023-01-06T15:52:44;3.57;;;2.20;;
12585;SDS011;6358;50.760;0.282;2023-01-06T15:55:19;3.03;;;2.23;;
12585;SDS011;6358;50.760;0.282;2023-01-06T15:57:49;3.43;;;1.90;;
12585;SDS011;6358;50.760;0.282;2023-01-06T16:00:23;3.03;;;1.90;;
12585;SDS011;6358;50.760;0.282;2023-01-06T16:02:50;2.67;;;2.10;;
12585;SDS011;6358;50.760;0.282;2023-01-06T16:05:32;3.17;;;2.10;;
12585;SDS011;6358;50.760;0.282;2023-01-06T16:08:00;2.57;;;2.00;;
12585;SDS011;6358;50.760;0.282;2023-01-06T16:10:30;3.17;;;2.00;;
12585;SDS011;6358;50.760;0.282;2023-01-06T16:15:49;3.77;;;2.23;;
12585;SDS011;6358;50.760;0.282;2023-01-06T16:18:16;2.93;;;2.30;;
12585;SDS011;6358;50.760;0.282;2023-01-06T16:20:50;4.27;;;2.20;;
12585;SDS011;6358;50.760;0.282;2023-01-06T16:23:25;5.67;;;2.20;;
12585;SDS011;6358;50.760;0.282;2023-01-06T16:26:00;5.10;;;2.03;;
12585;SDS011;6358;50.760;0.282;2023-01-06T16:28:27;3.37;;;2.10;;
12585;SDS011;6358;50.760;0.282;2023-01-06T16:31:03;3.17;;;1.70;;
12585;SDS011;6358;50.760;0.282;2023-01-06T16:33:32;2.00;;;1.80;;
12585;SDS011;6358;50.760;0.282;2023-01-06T16:35:59;3.83;;;2.00;;
12585;SDS011;6358;50.760;0.282;2023-01-06T16:38:25;2.80;;;1.93;;
12585;SDS011;6358;50.760;0.282;2023-01-06T16:40:51;2.27;;;2.00;;
12585;SDS011;6358;50.760;0.282;2023-01-06T16:43:17;2.10;;;1.80;;
12585;SDS011;6358;50.760;0.282;2023-01-06T16:45:43;2.83;;;1.83;;
12585;SDS011;6358;50.760;0.282;2023-01-06T16:48:13;3.83;;;1.73;;
12585;SDS011;6358;50.760;0.282;2023-01-06T16:50:39;4.70;;;1.80;;
12585;SDS011;6358;50.760;0.282;2023-01-06T16:55:34;2.10;;;1.60;;
12585;SDS011;6358;50.760;0.282;2023-01-06T16:58:01;1.80;;;1.60;;
12585;SDS011;6358;50.760;0.282;2023-01-06T17:00:30;2.73;;;1.67;;
12585;SDS011;6358;50.760;0.282;2023-01-06T17:02:59;3.67;;;2.00;;
12585;SDS011;6358;50.760;0.282;2023-01-06T17:05:26;2.67;;;2.00;;
12585;SDS011;6358;50.760;0.282;2023-01-06T17:07:59;3.07;;;1.83;;
12585;SDS011;6358;50.760;0.282;2023-01-06T17:10:27;3.07;;;1.90;;
12585;SDS011;6358;50.760;0.282;2023-01-06T17:13:02;3.30;;;1.47;;